Tuesday, January 15, 2019, 6:47 PM EST
Back to Local

KASH, Nashua, Boire Field Airport

Location: Nashua, NH, United States Lat: 42.782
Local Time: 6:47 PM EST (23:47 GMT) Lon: -71.515
Time Zone: US/Eastern Elev: 200 ft

Show me the last for .
Show Decoded

2019-01-15 17:56 METAR KASH 152256Z 00000KT 10SM CLR M03/M07 A3008 RMK AO2 SLP199 T10331067 $ =
2019-01-15 16:56 METAR KASH 152156Z 35004KT 10SM FEW033 M01/M07 A3007 RMK AO2 SLP195 T10111067 $
                 =
2019-01-15 15:56 METAR KASH 152056Z 30011KT 10SM SCT035 01/M07 A3006 RMK AO2 SLP191 T00061072
                 53005 $ =
2019-01-15 14:56 METAR KASH 151956Z 29009G15KT 10SM SCT035 01/M07 A3006 RMK AO2 SLP190 T00061072
                 $ =
2019-01-15 13:56 METAR KASH 151856Z COR 28010KT 10SM SCT035 SCT050 01/M07 A3005 RMK AO2 SLP187
                 T00111072 $ =
2019-01-15 12:56 METAR KASH 151756Z 30009G19KT 10SM FEW035 02/M08 A3005 RMK AO2 SLP186 T00171078
                 10017 21078 58020 $ =
2019-01-15 11:56 METAR KASH 151656Z 33008KT 10SM FEW035 01/M07 A3007 RMK AO2 SLP193 T00061072 $ =
2019-01-15 10:56 METAR KASH 151556Z 32012KT 10SM CLR M01/M07 A3009 RMK AO2 SLP201 T10061072 $ =
2019-01-15 09:56 METAR KASH 151456Z 30006KT 10SM CLR M03/M09 A3010 RMK AO2 SLP206 T10281089 51014
                 $ =
2019-01-15 08:56 METAR KASH 151356Z 30008KT 10SM CLR M06/M11 A3009 RMK AO2 SLP202 T10561111 $ =
2019-01-15 07:56 METAR KASH 151256Z 32008KT 10SM CLR M07/M12 A3008 RMK AO2 SLP197 T10721122 $ =
2019-01-15 06:56 METAR KASH 151156Z 32007KT 10SM CLR M07/M13 A3006 RMK AO2 SLP191 T10721133 11072
                 21111 53009 $ =
2019-01-15 05:56 METAR KASH 151056Z AUTO 00000KT 10SM CLR M09/M13 A3005 RMK AO2 SLP187 T10941133
                 FZRANO $ =
2019-01-15 04:56 METAR KASH 150956Z AUTO 00000KT 10SM CLR M08/M13 A3004 RMK AO2 SLP183 T10781133
                 FZRANO $ =
2019-01-15 03:56 METAR KASH 150856Z AUTO 32007KT 10SM CLR M09/M14 A3003 RMK AO2 SLP183 T10891139
                 58008 FZRANO $ =
2019-01-15 02:56 METAR KASH 150756Z AUTO 30005KT 10SM CLR M11/M13 A3005 RMK AO2 SLP188 T11061128
                 FZRANO $ =
2019-01-15 01:56 METAR KASH 150656Z AUTO 00000KT 10SM CLR M09/M12 A3005 RMK AO2 SLP188 T10891117
                 FZRANO $ =
2019-01-15 00:56 METAR KASH 150556Z AUTO 31004KT 10SM CLR M10/M12 A3006 RMK AO2 SLP191 T11001117
                 11050 21100 56013 FZRANO $ =
2019-01-14 23:56 METAR KASH 150456Z AUTO 31003KT 10SM CLR M09/M11 A3007 RMK AO2 SLP194 T10891106
                 400111122 FZRANO $ =
2019-01-14 22:56 METAR KASH 150356Z AUTO 00000KT 10SM CLR M08/M11 A3008 RMK AO2 SLP199 T10781106
                 FZRANO $ =
2019-01-14 21:56 METAR KASH 150256Z AUTO 27003KT 10SM CLR M07/M11 A3010 RMK AO2 SLP204 T10671106
                 56005 FZRANO $ =
2019-01-14 20:56 METAR KASH 150156Z 00000KT 10SM CLR M07/M10 A3010 RMK AO2 SLP204 T10671100 $ =
2019-01-14 19:56 METAR KASH 150056Z 29003KT 10SM CLR M06/M10 A3010 RMK AO2 SLP204 T10561100 $ =
2019-01-14 18:56 METAR KASH 142356Z 00000KT 10SM CLR M05/M10 A3011 RMK AO2 SLP209 T10501100 10011
                 21061 56008 $ =

Support USWX by starting your Amazon purchase here.